sensor_id;sensor_type;location;lat;lon;timestamp;temperature;humidity
8591;DHT22;4333;48.322;14.340;2024-02-26T00:02:05;1.90;99.90
8591;DHT22;4333;48.322;14.340;2024-02-26T00:04:36;1.90;99.90
8591;DHT22;4333;48.322;14.340;2024-02-26T00:07:01;1.90;99.90
8591;DHT22;4333;48.322;14.340;2024-02-26T00:09:30;1.90;99.90
8591;DHT22;4333;48.322;14.340;2024-02-26T00:12:01;1.90;99.90
8591;DHT22;4333;48.322;14.340;2024-02-26T00:14:29;1.90;99.90
8591;DHT22;4333;48.322;14.340;2024-02-26T00:17:01;1.90;99.90
8591;DHT22;4333;48.322;14.340;2024-02-26T00:19:28;1.90;99.90
8591;DHT22;4333;48.322;14.340;2024-02-26T00:21:54;1.80;99.90
8591;DHT22;4333;48.322;14.340;2024-02-26T00:24:21;1.80;99.90
8591;DHT22;4333;48.322;14.340;2024-02-26T00:26:46;1.80;99.90
8591;DHT22;4333;48.322;14.340;2024-02-26T00:29:18;1.70;99.90
8591;DHT22;4333;48.322;14.340;2024-02-26T00:31:44;1.70;99.90
8591;DHT22;4333;48.322;14.340;2024-02-26T00:34:10;1.70;99.90
8591;DHT22;4333;48.322;14.340;2024-02-26T00:36:36;1.80;99.90
8591;DHT22;4333;48.322;14.340;2024-02-26T00:39:04;1.90;99.90
8591;DHT22;4333;48.322;14.340;2024-02-26T00:41:38;1.90;99.90
8591;DHT22;4333;48.322;14.340;2024-02-26T00:44:04;1.80;99.90
8591;DHT22;4333;48.322;14.340;2024-02-26T00:46:30;1.80;99.90
8591;DHT22;4333;48.322;14.340;2024-02-26T00:48:55;1.70;99.90
8591;DHT22;4333;48.322;14.340;2024-02-26T00:51:26;1.60;99.90
8591;DHT22;4333;48.322;14.340;2024-02-26T00:53:54;1.60;99.90
8591;DHT22;4333;48.322;14.340;2024-02-26T00:56:23;1.70;99.90
8591;DHT22;4333;48.322;14.340;2024-02-26T00:58:54;1.80;99.90
8591;DHT22;4333;48.322;14.340;2024-02-26T01:01:23;1.80;99.90
8591;DHT22;4333;48.322;14.340;2024-02-26T01:03:51;1.80;99.90
8591;DHT22;4333;48.322;14.340;2024-02-26T01:06:19;1.80;99.90
8591;DHT22;4333;48.322;14.340;2024-02-26T01:08:45;1.80;99.90
8591;DHT22;4333;48.322;14.340;2024-02-26T01:11:14;1.80;99.90
8591;DHT22;4333;48.322;14.340;2024-02-26T01:13:40;1.80;99.90
8591;DHT22;4333;48.322;14.340;2024-02-26T01:16:09;1.70;99.90
8591;DHT22;4333;48.322;14.340;2024-02-26T01:18:36;1.80;99.90
8591;DHT22;4333;48.322;14.340;2024-02-26T01:21:02;1.60;99.90
8591;DHT22;4333;48.322;14.340;2024-02-26T01:23:32;1.50;99.90
8591;DHT22;4333;48.322;14.340;2024-02-26T01:25:58;1.40;99.90
8591;DHT22;4333;48.322;14.340;2024-02-26T01:28:28;1.40;99.90
8591;DHT22;4333;48.322;14.340;2024-02-26T01:31:03;1.40;99.90
8591;DHT22;4333;48.322;14.340;2024-02-26T01:33:32;1.40;99.90
8591;DHT22;4333;48.322;14.340;2024-02-26T01:36:00;1.40;99.90
8591;DHT22;4333;48.322;14.340;2024-02-26T01:38:26;1.30;99.90
8591;DHT22;4333;48.322;14.340;2024-02-26T01:40:54;1.30;99.90
8591;DHT22;4333;48.322;14.340;2024-02-26T01:43:23;1.20;99.90
8591;DHT22;4333;48.322;14.340;2024-02-26T01:45:49;1.20;99.90
8591;DHT22;4333;48.322;14.340;2024-02-26T01:48:15;1.20;99.90
8591;DHT22;4333;48.322;14.340;2024-02-26T01:50:40;1.10;99.90
8591;DHT22;4333;48.322;14.340;2024-02-26T01:53:06;1.10;99.90
8591;DHT22;4333;48.322;14.340;2024-02-26T01:55:33;1.10;99.90
8591;DHT22;4333;48.322;14.340;2024-02-26T01:58:02;1.10;99.90
8591;DHT22;4333;48.322;14.340;2024-02-26T02:00:28;1.10;99.90
8591;DHT22;4333;48.322;14.340;2024-02-26T02:02:54;1.10;99.90
8591;DHT22;4333;48.322;14.340;2024-02-26T02:05:21;1.10;99.90
8591;DHT22;4333;48.322;14.340;2024-02-26T02:07:49;1.10;99.90
8591;DHT22;4333;48.322;14.340;2024-02-26T02:10:17;1.00;99.90
8591;DHT22;4333;48.322;14.340;2024-02-26T02:12:51;1.10;99.90
8591;DHT22;4333;48.322;14.340;2024-02-26T02:15:20;1.20;99.90
8591;DHT22;4333;48.322;14.340;2024-02-26T02:17:46;1.20;99.90
8591;DHT22;4333;48.322;14.340;2024-02-26T02:20:16;1.20;99.90
8591;DHT22;4333;48.322;14.340;2024-02-26T02:22:46;1.10;99.90
8591;DHT22;4333;48.322;14.340;2024-02-26T02:25:13;1.00;99.90
8591;DHT22;4333;48.322;14.340;2024-02-26T02:27:40;1.00;99.90
8591;DHT22;4333;48.322;14.340;2024-02-26T02:30:09;1.00;99.90
8591;DHT22;4333;48.322;14.340;2024-02-26T02:32:42;1.00;99.90
8591;DHT22;4333;48.322;14.340;2024-02-26T02:35:08;0.90;99.90
8591;DHT22;4333;48.322;14.340;2024-02-26T02:37:34;0.90;99.90
8591;DHT22;4333;48.322;14.340;2024-02-26T02:40:12;0.90;99.90
8591;DHT22;4333;48.322;14.340;2024-02-26T02:42:40;0.90;99.90
8591;DHT22;4333;48.322;14.340;2024-02-26T02:45:11;0.90;99.90
8591;DHT22;4333;48.322;14.340;2024-02-26T02:47:40;1.00;99.90
8591;DHT22;4333;48.322;14.340;2024-02-26T02:50:09;1.00;99.90
8591;DHT22;4333;48.322;14.340;2024-02-26T02:52:37;0.90;99.90
8591;DHT22;4333;48.322;14.340;2024-02-26T02:55:06;0.80;99.90
8591;DHT22;4333;48.322;14.340;2024-02-26T02:57:38;0.80;99.90
8591;DHT22;4333;48.322;14.340;2024-02-26T03:00:12;0.60;99.90
8591;DHT22;4333;48.322;14.340;2024-02-26T03:02:44;0.60;99.90
8591;DHT22;4333;48.322;14.340;2024-02-26T03:05:10;0.70;99.90
8591;DHT22;4333;48.322;14.340;2024-02-26T03:07:39;0.80;99.90
8591;DHT22;4333;48.322;14.340;2024-02-26T03:10:05;0.70;99.90
8591;DHT22;4333;48.322;14.340;2024-02-26T03:12:34;0.60;99.90
8591;DHT22;4333;48.322;14.340;2024-02-26T03:15:02;0.50;99.90
8591;DHT22;4333;48.322;14.340;2024-02-26T03:17:31;0.60;99.90
8591;DHT22;4333;48.322;14.340;2024-02-26T03:20:02;0.60;99.90
8591;DHT22;4333;48.322;14.340;2024-02-26T03:22:30;0.60;99.90
8591;DHT22;4333;48.322;14.340;2024-02-26T03:24:57;0.60;99.90
8591;DHT22;4333;48.322;14.340;2024-02-26T03:27:27;0.60;99.90
8591;DHT22;4333;48.322;14.340;2024-02-26T03:29:52;0.60;99.90
8591;DHT22;4333;48.322;14.340;2024-02-26T03:32:18;0.60;99.90
8591;DHT22;4333;48.322;14.340;2024-02-26T03:34:47;0.60;99.90
8591;DHT22;4333;48.322;14.340;2024-02-26T03:37:12;0.50;99.90
8591;DHT22;4333;48.322;14.340;2024-02-26T03:39:38;0.50;99.90
8591;DHT22;4333;48.322;14.340;2024-02-26T03:42:04;0.60;99.90
8591;DHT22;4333;48.322;14.340;2024-02-26T03:44:30;0.60;99.90
8591;DHT22;4333;48.322;14.340;2024-02-26T03:47:03;0.80;99.90
8591;DHT22;4333;48.322;14.340;2024-02-26T03:49:29;0.80;99.90
8591;DHT22;4333;48.322;14.340;2024-02-26T03:52:06;0.70;99.90
8591;DHT22;4333;48.322;14.340;2024-02-26T03:54:35;0.60;99.90
8591;DHT22;4333;48.322;14.340;2024-02-26T03:57:03;0.50;99.90
8591;DHT22;4333;48.322;14.340;2024-02-26T03:59:38;0.30;99.90
8591;DHT22;4333;48.322;14.340;2024-02-26T04:02:05;0.20;99.90
8591;DHT22;4333;48.322;14.340;2024-02-26T04:04:34;0.30;99.90
8591;DHT22;4333;48.322;14.340;2024-02-26T04:07:01;0.30;99.90
8591;DHT22;4333;48.322;14.340;2024-02-26T04:09:27;0.20;99.90
8591;DHT22;4333;48.322;14.340;2024-02-26T04:11:55;0.20;99.90
8591;DHT22;4333;48.322;14.340;2024-02-26T04:14:30;0.10;99.90
8591;DHT22;4333;48.322;14.340;2024-02-26T04:16:59;0.10;99.90
8591;DHT22;4333;48.322;14.340;2024-02-26T04:19:24;0.20;99.90
8591;DHT22;4333;48.322;14.340;2024-02-26T04:21:50;0.30;99.90
8591;DHT22;4333;48.322;14.340;2024-02-26T04:24:16;0.30;99.90
8591;DHT22;4333;48.322;14.340;2024-02-26T04:26:42;0.40;99.90
8591;DHT22;4333;48.322;14.340;2024-02-26T04:29:10;0.40;99.90
8591;DHT22;4333;48.322;14.340;2024-02-26T04:31:41;0.40;99.90
8591;DHT22;4333;48.322;14.340;2024-02-26T04:34:10;0.40;99.90
8591;DHT22;4333;48.322;14.340;2024-02-26T04:36:36;0.30;99.90
8591;DHT22;4333;48.322;14.340;2024-02-26T04:39:04;0.40;99.90
8591;DHT22;4333;48.322;14.340;2024-02-26T04:41:30;0.30;99.90
8591;DHT22;4333;48.322;14.340;2024-02-26T04:44:00;0.10;99.90
8591;DHT22;4333;48.322;14.340;2024-02-26T04:46:26;0.10;99.90
8591;DHT22;4333;48.322;14.340;2024-02-26T04:48:53;0.20;99.90
8591;DHT22;4333;48.322;14.340;2024-02-26T04:51:19;0.10;99.90
8591;DHT22;4333;48.322;14.340;2024-02-26T04:53:47;0.20;99.90
8591;DHT22;4333;48.322;14.340;2024-02-26T04:56:21;0.20;99.90
8591;DHT22;4333;48.322;14.340;2024-02-26T04:58:47;0.20;99.90
8591;DHT22;4333;48.322;14.340;2024-02-26T05:01:13;0.20;99.90
8591;DHT22;4333;48.322;14.340;2024-02-26T05:03:41;0.30;99.90
8591;DHT22;4333;48.322;14.340;2024-02-26T05:06:10;0.30;99.90
8591;DHT22;4333;48.322;14.340;2024-02-26T05:08:35;0.30;99.90
8591;DHT22;4333;48.322;14.340;2024-02-26T05:11:03;0.20;99.90
8591;DHT22;4333;48.322;14.340;2024-02-26T05:13:32;0.20;99.90
8591;DHT22;4333;48.322;14.340;2024-02-26T05:15:58;0.20;99.90
8591;DHT22;4333;48.322;14.340;2024-02-26T05:18:27;0.30;99.90
8591;DHT22;4333;48.322;14.340;2024-02-26T05:20:53;0.30;99.90
8591;DHT22;4333;48.322;14.340;2024-02-26T05:23:21;0.20;99.90
8591;DHT22;4333;48.322;14.340;2024-02-26T05:25:48;0.10;99.90
8591;DHT22;4333;48.322;14.340;2024-02-26T05:28:21;0.00;99.90
8591;DHT22;4333;48.322;14.340;2024-02-26T05:30:50;0.00;99.90
8591;DHT22;4333;48.322;14.340;2024-02-26T05:33:21;-0.10;99.90
8591;DHT22;4333;48.322;14.340;2024-02-26T05:35:51;-0.10;99.90
8591;DHT22;4333;48.322;14.340;2024-02-26T05:38:17;-0.10;99.90
8591;DHT22;4333;48.322;14.340;2024-02-26T05:40:53;-0.20;99.90
8591;DHT22;4333;48.322;14.340;2024-02-26T05:43:22;-0.20;99.90
8591;DHT22;4333;48.322;14.340;2024-02-26T05:45:48;-0.20;99.90
8591;DHT22;4333;48.322;14.340;2024-02-26T05:48:17;-0.20;99.90
8591;DHT22;4333;48.322;14.340;2024-02-26T05:50:45;-0.30;99.90
8591;DHT22;4333;48.322;14.340;2024-02-26T05:53:23;-0.30;99.90
8591;DHT22;4333;48.322;14.340;2024-02-26T05:55:57;-0.40;99.90
8591;DHT22;4333;48.322;14.340;2024-02-26T05:58:25;-0.40;99.90
8591;DHT22;4333;48.322;14.340;2024-02-26T06:00:54;-0.40;99.90
8591;DHT22;4333;48.322;14.340;2024-02-26T06:03:23;-0.30;99.90
8591;DHT22;4333;48.322;14.340;2024-02-26T06:05:51;-0.30;99.90
8591;DHT22;4333;48.322;14.340;2024-02-26T06:08:17;-0.30;99.90
8591;DHT22;4333;48.322;14.340;2024-02-26T06:10:45;-0.30;99.90
8591;DHT22;4333;48.322;14.340;2024-02-26T06:13:16;-0.30;99.90
8591;DHT22;4333;48.322;14.340;2024-02-26T06:15:51;-0.30;99.90
8591;DHT22;4333;48.322;14.340;2024-02-26T06:18:20;-0.20;99.90
8591;DHT22;4333;48.322;14.340;2024-02-26T06:20:48;-0.20;99.90
8591;DHT22;4333;48.322;14.340;2024-02-26T06:23:15;-0.20;99.90
8591;DHT22;4333;48.322;14.340;2024-02-26T06:25:46;-0.20;99.90
8591;DHT22;4333;48.322;14.340;2024-02-26T06:28:13;-0.30;99.90
8591;DHT22;4333;48.322;14.340;2024-02-26T06:30:39;-0.20;99.90
8591;DHT22;4333;48.322;14.340;2024-02-26T06:33:07;-0.30;99.90
8591;DHT22;4333;48.322;14.340;2024-02-26T06:35:36;-0.30;99.90
8591;DHT22;4333;48.322;14.340;2024-02-26T06:38:04;-0.30;99.90
8591;DHT22;4333;48.322;14.340;2024-02-26T06:40:33;-0.40;99.90
8591;DHT22;4333;48.322;14.340;2024-02-26T06:43:01;-0.40;99.90
8591;DHT22;4333;48.322;14.340;2024-02-26T06:45:27;-0.40;99.90
8591;DHT22;4333;48.322;14.340;2024-02-26T06:47:56;-0.30;99.90
8591;DHT22;4333;48.322;14.340;2024-02-26T06:50:22;-0.20;99.90
8591;DHT22;4333;48.322;14.340;2024-02-26T06:52:47;-0.20;99.90
8591;DHT22;4333;48.322;14.340;2024-02-26T06:55:17;-0.20;99.90
8591;DHT22;4333;48.322;14.340;2024-02-26T06:57:45;-0.20;99.90
8591;DHT22;4333;48.322;14.340;2024-02-26T07:00:11;-0.20;99.90
8591;DHT22;4333;48.322;14.340;2024-02-26T07:02:41;-0.10;99.90
8591;DHT22;4333;48.322;14.340;2024-02-26T07:05:07;-0.10;99.90
8591;DHT22;4333;48.322;14.340;2024-02-26T07:07:39;0.00;99.90
8591;DHT22;4333;48.322;14.340;2024-02-26T07:10:08;0.00;99.90
8591;DHT22;4333;48.322;14.340;2024-02-26T07:12:34;0.00;99.90
8591;DHT22;4333;48.322;14.340;2024-02-26T07:15:02;0.10;99.90
8591;DHT22;4333;48.322;14.340;2024-02-26T07:17:31;0.20;99.90
8591;DHT22;4333;48.322;14.340;2024-02-26T07:19:58;0.30;99.90
8591;DHT22;4333;48.322;14.340;2024-02-26T07:22:26;0.30;99.90
8591;DHT22;4333;48.322;14.340;2024-02-26T07:24:55;0.30;99.90
8591;DHT22;4333;48.322;14.340;2024-02-26T07:27:26;0.40;99.90
8591;DHT22;4333;48.322;14.340;2024-02-26T07:29:54;0.40;99.90
8591;DHT22;4333;48.322;14.340;2024-02-26T07:32:23;0.50;99.90
8591;DHT22;4333;48.322;14.340;2024-02-26T07:34:48;0.70;99.90
8591;DHT22;4333;48.322;14.340;2024-02-26T07:37:20;0.80;99.90
8591;DHT22;4333;48.322;14.340;2024-02-26T07:39:46;1.10;99.90
8591;DHT22;4333;48.322;14.340;2024-02-26T07:42:21;1.10;99.90
8591;DHT22;4333;48.322;14.340;2024-02-26T07:44:47;1.00;99.90
8591;DHT22;4333;48.322;14.340;2024-02-26T07:47:15;1.00;99.90
8591;DHT22;4333;48.322;14.340;2024-02-26T07:49:43;1.00;99.90
8591;DHT22;4333;48.322;14.340;2024-02-26T07:52:12;1.10;99.90
8591;DHT22;4333;48.322;14.340;2024-02-26T07:54:45;1.20;99.90
8591;DHT22;4333;48.322;14.340;2024-02-26T07:57:11;1.20;99.90
8591;DHT22;4333;48.322;14.340;2024-02-26T07:59:43;1.40;99.90
8591;DHT22;4333;48.322;14.340;2024-02-26T08:02:16;1.60;99.90
8591;DHT22;4333;48.322;14.340;2024-02-26T08:04:42;1.70;99.90
8591;DHT22;4333;48.322;14.340;2024-02-26T08:07:13;1.70;99.90
8591;DHT22;4333;48.322;14.340;2024-02-26T08:09:42;1.90;99.90
8591;DHT22;4333;48.322;14.340;2024-02-26T08:12:10;2.00;99.90
8591;DHT22;4333;48.322;14.340;2024-02-26T08:14:46;1.90;99.90
8591;DHT22;4333;48.322;14.340;2024-02-26T08:17:15;2.00;99.90
8591;DHT22;4333;48.322;14.340;2024-02-26T08:19:40;2.10;99.90
8591;DHT22;4333;48.322;14.340;2024-02-26T08:22:11;2.10;99.90
8591;DHT22;4333;48.322;14.340;2024-02-26T08:24:46;2.10;99.90
8591;DHT22;4333;48.322;14.340;2024-02-26T08:27:12;2.10;99.90
8591;DHT22;4333;48.322;14.340;2024-02-26T08:29:41;2.20;99.90
8591;DHT22;4333;48.322;14.340;2024-02-26T08:32:14;2.20;99.90
8591;DHT22;4333;48.322;14.340;2024-02-26T08:34:45;2.40;99.90
8591;DHT22;4333;48.322;14.340;2024-02-26T08:37:16;2.80;99.90
8591;DHT22;4333;48.322;14.340;2024-02-26T08:39:47;3.00;99.90
8591;DHT22;4333;48.322;14.340;2024-02-26T08:42:21;3.10;99.90
8591;DHT22;4333;48.322;14.340;2024-02-26T08:44:55;3.50;99.90
8591;DHT22;4333;48.322;14.340;2024-02-26T08:47:28;3.90;99.90
8591;DHT22;4333;48.322;14.340;2024-02-26T08:49:58;4.00;99.90
8591;DHT22;4333;48.322;14.340;2024-02-26T08:52:40;4.20;99.90
8591;DHT22;4333;48.322;14.340;2024-02-26T08:55:18;4.10;99.90
8591;DHT22;4333;48.322;14.340;2024-02-26T08:57:44;4.40;99.90
8591;DHT22;4333;48.322;14.340;2024-02-26T09:00:16;4.90;99.90
8591;DHT22;4333;48.322;14.340;2024-02-26T09:02:48;5.00;99.90
8591;DHT22;4333;48.322;14.340;2024-02-26T09:05:32;5.60;99.90
8591;DHT22;4333;48.322;14.340;2024-02-26T09:08:04;6.60;99.90
8591;DHT22;4333;48.322;14.340;2024-02-26T09:10:30;7.40;99.40
8591;DHT22;4333;48.322;14.340;2024-02-26T09:12:57;7.80;86.30
8591;DHT22;4333;48.322;14.340;2024-02-26T09:15:28;7.50;78.60
8591;DHT22;4333;48.322;14.340;2024-02-26T09:18:04;7.70;90.90
8591;DHT22;4333;48.322;14.340;2024-02-26T09:20:45;8.20;88.30
8591;DHT22;4333;48.322;14.340;2024-02-26T09:23:16;8.40;74.50
8591;DHT22;4333;48.322;14.340;2024-02-26T09:25:49;8.30;68.80
8591;DHT22;4333;48.322;14.340;2024-02-26T09:28:17;7.80;66.30
8591;DHT22;4333;48.322;14.340;2024-02-26T09:30:44;7.60;74.30
8591;DHT22;4333;48.322;14.340;2024-02-26T09:33:10;7.40;75.80
8591;DHT22;4333;48.322;14.340;2024-02-26T09:35:37;7.60;87.00
8591;DHT22;4333;48.322;14.340;2024-02-26T09:38:02;7.80;85.70
8591;DHT22;4333;48.322;14.340;2024-02-26T09:40:31;8.00;80.80
8591;DHT22;4333;48.322;14.340;2024-02-26T09:43:14;7.80;73.60
8591;DHT22;4333;48.322;14.340;2024-02-26T09:45:49;7.80;77.50
8591;DHT22;4333;48.322;14.340;2024-02-26T09:48:17;7.30;71.20
8591;DHT22;4333;48.322;14.340;2024-02-26T09:50:44;6.80;90.70
8591;DHT22;4333;48.322;14.340;2024-02-26T09:53:13;7.40;93.40
8591;DHT22;4333;48.322;14.340;2024-02-26T09:55:41;7.90;90.70
8591;DHT22;4333;48.322;14.340;2024-02-26T09:58:12;8.10;77.30
8591;DHT22;4333;48.322;14.340;2024-02-26T10:00:47;7.90;71.10
8591;DHT22;4333;48.322;14.340;2024-02-26T10:03:21;8.00;73.40
8591;DHT22;4333;48.322;14.340;2024-02-26T10:05:49;8.20;76.10
8591;DHT22;4333;48.322;14.340;2024-02-26T10:08:26;8.60;76.00
8591;DHT22;4333;48.322;14.340;2024-02-26T10:10:57;8.70;67.90
8591;DHT22;4333;48.322;14.340;2024-02-26T10:13:32;8.80;63.80
8591;DHT22;4333;48.322;14.340;2024-02-26T10:16:00;8.60;63.50
8591;DHT22;4333;48.322;14.340;2024-02-26T10:18:48;8.40;62.50
8591;DHT22;4333;48.322;14.340;2024-02-26T10:21:18;8.40;68.70
8591;DHT22;4333;48.322;14.340;2024-02-26T10:23:45;8.30;70.10
8591;DHT22;4333;48.322;14.340;2024-02-26T10:26:39;8.10;66.90
8591;DHT22;4333;48.322;14.340;2024-02-26T10:29:19;8.00;74.30
8591;DHT22;4333;48.322;14.340;2024-02-26T10:31:48;8.20;73.30
8591;DHT22;4333;48.322;14.340;2024-02-26T10:34:17;8.20;69.10
8591;DHT22;4333;48.322;14.340;2024-02-26T10:36:43;8.30;70.10
8591;DHT22;4333;48.322;14.340;2024-02-26T10:39:12;8.40;72.20
8591;DHT22;4333;48.322;14.340;2024-02-26T10:41:49;8.40;70.30
8591;DHT22;4333;48.322;14.340;2024-02-26T10:44:15;8.60;69.80
8591;DHT22;4333;48.322;14.340;2024-02-26T10:46:41;8.80;70.00
8591;DHT22;4333;48.322;14.340;2024-02-26T10:49:26;8.80;67.00
8591;DHT22;4333;48.322;14.340;2024-02-26T10:51:56;8.80;64.80
8591;DHT22;4333;48.322;14.340;2024-02-26T10:54:28;8.90;68.40
8591;DHT22;4333;48.322;14.340;2024-02-26T10:57:06;9.00;66.10
8591;DHT22;4333;48.322;14.340;2024-02-26T10:59:38;9.40;63.50
8591;DHT22;4333;48.322;14.340;2024-02-26T11:02:05;9.40;59.30
8591;DHT22;4333;48.322;14.340;2024-02-26T11:04:36;9.30;55.90
8591;DHT22;4333;48.322;14.340;2024-02-26T11:07:10;9.70;58.60
8591;DHT22;4333;48.322;14.340;2024-02-26T11:09:42;9.80;54.60
8591;DHT22;4333;48.322;14.340;2024-02-26T11:12:15;10.00;55.00
8591;DHT22;4333;48.322;14.340;2024-02-26T11:14:51;10.00;55.30
8591;DHT22;4333;48.322;14.340;2024-02-26T11:17:25;10.20;54.10
8591;DHT22;4333;48.322;14.340;2024-02-26T11:19:55;10.00;50.90
8591;DHT22;4333;48.322;14.340;2024-02-26T11:22:39;9.30;55.00
8591;DHT22;4333;48.322;14.340;2024-02-26T11:25:11;8.80;67.20
8591;DHT22;4333;48.322;14.340;2024-02-26T11:27:58;8.60;74.10
8591;DHT22;4333;48.322;14.340;2024-02-26T11:30:33;8.80;79.00
8591;DHT22;4333;48.322;14.340;2024-02-26T11:33:07;9.10;70.50
8591;DHT22;4333;48.322;14.340;2024-02-26T11:35:44;9.20;60.00
8591;DHT22;4333;48.322;14.340;2024-02-26T11:38:24;9.30;59.20
8591;DHT22;4333;48.322;14.340;2024-02-26T11:40:52;9.40;55.10
8591;DHT22;4333;48.322;14.340;2024-02-26T11:43:51;9.50;59.10
8591;DHT22;4333;48.322;14.340;2024-02-26T11:52:00;9.60;47.60
8591;DHT22;4333;48.322;14.340;2024-02-26T12:00:10;9.40;55.70
8591;DHT22;4333;48.322;14.340;2024-02-26T12:02:41;9.70;57.20
8591;DHT22;4333;48.322;14.340;2024-02-26T12:05:19;10.10;53.10
8591;DHT22;4333;48.322;14.340;2024-02-26T12:07:53;10.10;45.10
8591;DHT22;4333;48.322;14.340;2024-02-26T12:13:02;9.90;53.50
8591;DHT22;4333;48.322;14.340;2024-02-26T12:15:36;10.10;53.60
8591;DHT22;4333;48.322;14.340;2024-02-26T12:18:16;10.20;47.70
8591;DHT22;4333;48.322;14.340;2024-02-26T12:20:45;10.30;47.50
8591;DHT22;4333;48.322;14.340;2024-02-26T12:23:17;10.30;48.20
8591;DHT22;4333;48.322;14.340;2024-02-26T12:25:53;10.40;46.80
8591;DHT22;4333;48.322;14.340;2024-02-26T12:28:18;10.40;44.70
8591;DHT22;4333;48.322;14.340;2024-02-26T12:30:49;10.30;42.80
8591;DHT22;4333;48.322;14.340;2024-02-26T12:33:18;9.80;45.90
8591;DHT22;4333;48.322;14.340;2024-02-26T12:35:46;9.70;50.70
8591;DHT22;4333;48.322;14.340;2024-02-26T12:38:18;9.40;53.70
8591;DHT22;4333;48.322;14.340;2024-02-26T12:40:56;9.40;56.00
8591;DHT22;4333;48.322;14.340;2024-02-26T12:43:26;9.50;58.80
8591;DHT22;4333;48.322;14.340;2024-02-26T12:45:56;9.70;57.50
8591;DHT22;4333;48.322;14.340;2024-02-26T12:48:23;9.80;56.90
8591;DHT22;4333;48.322;14.340;2024-02-26T12:50:54;9.80;52.50
8591;DHT22;4333;48.322;14.340;2024-02-26T12:53:27;9.80;52.50
8591;DHT22;4333;48.322;14.340;2024-02-26T12:55:58;9.80;54.40
8591;DHT22;4333;48.322;14.340;2024-02-26T12:58:27;10.00;54.60
8591;DHT22;4333;48.322;14.340;2024-02-26T13:00:56;9.80;50.20
8591;DHT22;4333;48.322;14.340;2024-02-26T13:03:28;9.80;51.70
8591;DHT22;4333;48.322;14.340;2024-02-26T13:05:59;9.80;51.30
8591;DHT22;4333;48.322;14.340;2024-02-26T13:08:32;9.60;53.30
8591;DHT22;4333;48.322;14.340;2024-02-26T13:10:59;9.50;54.10
8591;DHT22;4333;48.322;14.340;2024-02-26T13:13:38;9.40;56.00
8591;DHT22;4333;48.322;14.340;2024-02-26T13:16:14;9.50;58.00
8591;DHT22;4333;48.322;14.340;2024-02-26T13:18:43;9.70;56.10
8591;DHT22;4333;48.322;14.340;2024-02-26T13:21:13;9.60;53.10
8591;DHT22;4333;48.322;14.340;2024-02-26T13:23:53;9.70;55.00
8591;DHT22;4333;48.322;14.340;2024-02-26T13:26:31;9.90;53.70
8591;DHT22;4333;48.322;14.340;2024-02-26T13:29:05;10.10;50.00
8591;DHT22;4333;48.322;14.340;2024-02-26T13:31:40;10.20;48.90
8591;DHT22;4333;48.322;14.340;2024-02-26T13:34:07;10.20;45.00
8591;DHT22;4333;48.322;14.340;2024-02-26T13:36:33;10.10;46.30
8591;DHT22;4333;48.322;14.340;2024-02-26T13:38:59;9.90;49.20
8591;DHT22;4333;48.322;14.340;2024-02-26T13:41:28;9.80;51.00
8591;DHT22;4333;48.322;14.340;2024-02-26T13:43:54;9.70;54.10
8591;DHT22;4333;48.322;14.340;2024-02-26T13:46:20;9.70;54.70
8591;DHT22;4333;48.322;14.340;2024-02-26T13:48:49;9.80;55.00
8591;DHT22;4333;48.322;14.340;2024-02-26T13:51:15;9.90;55.00
8591;DHT22;4333;48.322;14.340;2024-02-26T13:53:51;10.00;49.90
8591;DHT22;4333;48.322;14.340;2024-02-26T13:56:22;10.20;52.00
8591;DHT22;4333;48.322;14.340;2024-02-26T13:58:50;10.40;48.70
8591;DHT22;4333;48.322;14.340;2024-02-26T14:01:16;10.50;48.70
8591;DHT22;4333;48.322;14.340;2024-02-26T14:03:48;10.70;48.20
8591;DHT22;4333;48.322;14.340;2024-02-26T14:06:14;10.80;45.80
8591;DHT22;4333;48.322;14.340;2024-02-26T14:08:40;10.80;40.70
8591;DHT22;4333;48.322;14.340;2024-02-26T14:11:08;10.60;41.70
8591;DHT22;4333;48.322;14.340;2024-02-26T14:13:43;10.60;45.20
8591;DHT22;4333;48.322;14.340;2024-02-26T14:16:17;10.60;44.20
8591;DHT22;4333;48.322;14.340;2024-02-26T14:18:46;10.60;44.20
8591;DHT22;4333;48.322;14.340;2024-02-26T14:21:17;10.80;45.40
8591;DHT22;4333;48.322;14.340;2024-02-26T14:23:46;10.90;43.40
8591;DHT22;4333;48.322;14.340;2024-02-26T14:26:14;11.00;40.90
8591;DHT22;4333;48.322;14.340;2024-02-26T14:28:43;11.10;39.70
8591;DHT22;4333;48.322;14.340;2024-02-26T14:31:12;11.10;38.00
8591;DHT22;4333;48.322;14.340;2024-02-26T14:33:41;11.20;36.90
8591;DHT22;4333;48.322;14.340;2024-02-26T14:36:07;11.20;36.00
8591;DHT22;4333;48.322;14.340;2024-02-26T14:38:39;11.20;36.70
8591;DHT22;4333;48.322;14.340;2024-02-26T14:41:05;11.20;38.20
8591;DHT22;4333;48.322;14.340;2024-02-26T14:43:39;11.20;38.70
8591;DHT22;4333;48.322;14.340;2024-02-26T14:46:07;11.20;38.50
8591;DHT22;4333;48.322;14.340;2024-02-26T14:48:43;11.20;35.70
8591;DHT22;4333;48.322;14.340;2024-02-26T14:51:09;11.20;33.60
8591;DHT22;4333;48.322;14.340;2024-02-26T14:53:35;11.10;31.70
8591;DHT22;4333;48.322;14.340;2024-02-26T14:56:04;11.20;35.30
8591;DHT22;4333;48.322;14.340;2024-02-26T14:58:32;11.30;33.70
8591;DHT22;4333;48.322;14.340;2024-02-26T15:00:58;11.50;31.90
8591;DHT22;4333;48.322;14.340;2024-02-26T15:03:28;11.50;32.50
8591;DHT22;4333;48.322;14.340;2024-02-26T15:05:54;11.60;32.40
8591;DHT22;4333;48.322;14.340;2024-02-26T15:08:29;11.50;33.30
8591;DHT22;4333;48.322;14.340;2024-02-26T15:10:54;11.50;34.30
8591;DHT22;4333;48.322;14.340;2024-02-26T15:13:20;11.50;33.00
8591;DHT22;4333;48.322;14.340;2024-02-26T15:15:47;11.40;34.20
8591;DHT22;4333;48.322;14.340;2024-02-26T15:18:18;11.40;35.80
8591;DHT22;4333;48.322;14.340;2024-02-26T15:20:46;11.30;35.70
8591;DHT22;4333;48.322;14.340;2024-02-26T15:23:15;11.20;35.80
8591;DHT22;4333;48.322;14.340;2024-02-26T15:26:03;11.10;36.60
8591;DHT22;4333;48.322;14.340;2024-02-26T15:28:44;11.10;37.60
8591;DHT22;4333;48.322;14.340;2024-02-26T15:31:30;11.10;39.20
8591;DHT22;4333;48.322;14.340;2024-02-26T15:34:12;11.00;40.30
8591;DHT22;4333;48.322;14.340;2024-02-26T15:36:40;10.90;39.60
8591;DHT22;4333;48.322;14.340;2024-02-26T15:39:17;10.90;39.20
8591;DHT22;4333;48.322;14.340;2024-02-26T15:41:46;10.90;41.00
8591;DHT22;4333;48.322;14.340;2024-02-26T15:44:19;10.80;40.30
8591;DHT22;4333;48.322;14.340;2024-02-26T15:46:53;10.70;40.80
8591;DHT22;4333;48.322;14.340;2024-02-26T15:49:24;10.60;44.60
8591;DHT22;4333;48.322;14.340;2024-02-26T15:52:03;10.50;46.60
8591;DHT22;4333;48.322;14.340;2024-02-26T15:54:53;10.30;51.20
8591;DHT22;4333;48.322;14.340;2024-02-26T15:57:27;10.00;58.50
8591;DHT22;4333;48.322;14.340;2024-02-26T16:00:01;9.80;64.30
8591;DHT22;4333;48.322;14.340;2024-02-26T16:02:41;9.60;61.80
8591;DHT22;4333;48.322;14.340;2024-02-26T16:05:09;9.40;65.90
8591;DHT22;4333;48.322;14.340;2024-02-26T16:07:49;9.40;68.00
8591;DHT22;4333;48.322;14.340;2024-02-26T16:10:17;9.30;73.40
8591;DHT22;4333;48.322;14.340;2024-02-26T16:12:59;9.20;73.50
8591;DHT22;4333;48.322;14.340;2024-02-26T16:15:29;9.10;76.90
8591;DHT22;4333;48.322;14.340;2024-02-26T16:17:58;9.10;71.20
8591;DHT22;4333;48.322;14.340;2024-02-26T16:20:32;9.10;67.90
8591;DHT22;4333;48.322;14.340;2024-02-26T16:23:08;9.00;68.40
8591;DHT22;4333;48.322;14.340;2024-02-26T16:25:37;9.00;71.60
8591;DHT22;4333;48.322;14.340;2024-02-26T16:28:10;8.90;74.70
8591;DHT22;4333;48.322;14.340;2024-02-26T16:30:50;8.80;77.00